Kake, AK (99830)

2:50 AM AKDT on September 19, 2014 (GMT -0800)
Kake | Change Station
CLOSE
Current Station
Airport
Location: Kake,
Elevation: 171 ft
Nearby Weather Stations

Elev 171 ft 56.96 °N, 133.91 °W | Updated 14 minutes ago

Overcast
Overcast
54 °F
Feels Like 54 °F
N
12
Wind Variable Wind from SE

Today
High -- | Low -- °F
--% Chance of Precip.
Yesterday
High -- | Low -- °F
Precip. -- in
6:35 AM 7:02 PM
Waning Crescent, 20% visible
Pressure 29.48 in
Visibility 10.0 miles
Clouds Mostly Cloudy 2700 ft
Mostly Cloudy 3300 ft
Overcast 4000 ft
Dew Point 50 °F
Humidity 88%
Rainfall 0.00 in
Snow Depth 1 in , 0 in , 1 in
UV 0 out of 12
Pollen Not available.
Air Quality Not available.
Flu Activity Not available.
METAR PAFE 191036Z AUTO 14010KT 10SM BKN027 BKN033 OVC040 12/10 A2948 RMK AO1

More Conditions Fewer Conditions

Pressure 29.48 in
Visibility 10.0 miles
Clouds Mostly Cloudy 2700 ft
Mostly Cloudy 3300 ft
Overcast 4000 ft
Dew Point 50 °F
Humidity 88%
Rainfall 0.00 in
Snow Depth 1 in , 0 in , 1 in
UV 0 out of 12
Pollen Not available.
Air Quality Not available.
Flu Activity Not available.
METAR PAFE 191036Z AUTO 14010KT 10SM BKN027 BKN033 OVC040 12/10 A2948 RMK AO1

More Conditions Fewer Conditions

10-Day Weather Forecast

Almanac

Astronomy

Sep. 19, 2014 Rise Set
Actual Time 6:35 AM AKDT 7:02 PM AKDT
Civil Twilight 5:56 AM AKDT 7:40 PM AKDT
Nautical Twilight 5:10 AM AKDT 8:26 PM AKDT
Astronomical Twilight 4:20 AM AKDT 9:16 PM AKDT
Moon 1:47 AM AKDT 5:09 PM AKDT
Length of Visible Light 13h 44m
Length of Day
12h 27m
Tomorrow will be 4m 46s shorter.
Waning Crescent, 20% of the Moon is Illuminated
Today
Waning Crescent
Sep 24
New
Oct 1
First Quarter
Oct 8
Full
Oct 15
Last Quarter

Today's Extremes

State Highs State Lows

Community

WunderPhotos

Upload Photos

1,754,591 photos uploaded!

Nearby

Snow Depth

Station Depth Elevation
Rocky Point 6 in 500 ft
Mcneil Canyon 1 in 1320 ft
Munson Ridge 1 in 3100 ft
Fort Yukon 0 in 430 ft
Port Graham 0 in 300 ft

Earthquake Activity

City Distance Mag. Time & Date
No recent earthquake activity has been reported nearby.
Minimum magnitude displayed is 2.5.

Coastal Water Temperatures

Place Temperature
No Stations Reporting

Nearby Weather Stations